Flugplatz Lechfeld Airport

Bericht für ETSL

vom 17.09. um 14:20 UTC

Wind 10 kt aus 280°

Sichtweite 10 km oder mehr

gering bewölkt in 3000 ft

aufgelockert bewölkt in 5000 ft

Temperatur 18.0°C

Taupunkt 11.0°C

Luftfeuchtigkeit 64%

Luftdruck 1019 hPa

ETSL 171420Z 28010KT 9999 FEW030 SCT050 18/11 Q1019 BLACKBLU+
Keine Prognose (TAF) verfügbar.
Impressum